Time;durP1;ratioP1;P1;durP2;ratioP2;P2;SDS_P1;SDS_P2;PMS_P1;PMS_P2;Temp;Humidity;BMP_temperature;BMP_pressure;BME280_temperature;BME280_humidity;BME280_pressure;Samples;Min_cycle;Max_cycle;Signal;HPM_P1;HPM_P2
2022/12/14 00:00:14;;;;;;;;;;;-3.70;99.90;;;;;;5075922;28;20282;-65
2022/12/14 00:02:39;;;;;;;;;;;-3.80;99.90;;;;;;5076063;28;19918;-65
2022/12/14 00:05:05;;;;;;;;;;;-3.80;99.90;;;;;;5076008;28;19920;-65
2022/12/14 00:07:31;;;;;;;;;;;-3.80;99.90;;;;;;5075984;28;19995;-65
2022/12/14 00:09:56;;;;;;;;;;;-3.80;99.90;;;;;;5076144;28;19927;-65
2022/12/14 00:12:21;;;;;;;;;;;-3.80;99.90;;;;;;5076114;28;20373;-65
2022/12/14 00:14:47;;;;;;;;;;;-3.70;99.90;;;;;;5075863;28;20342;-65
2022/12/14 00:17:12;;;;;;;;;;;-3.70;99.90;;;;;;5076064;28;19909;-65
2022/12/14 00:19:38;;;;;;;;;;;-3.60;99.90;;;;;;5076024;28;19943;-65
2022/12/14 00:22:03;;;;;;;;;;;-3.60;99.90;;;;;;5075764;28;20366;-65
2022/12/14 00:24:29;;;;;;;;;;;-3.60;99.90;;;;;;5057748;28;19909;-65
2022/12/14 00:26:55;;;;;;;;;;;-3.60;99.90;;;;;;5075872;28;19912;-65
2022/12/14 00:29:20;;;;;;;;;;;-3.60;99.90;;;;;;5075313;28;19921;-65
2022/12/14 00:31:46;;;;;;;;;;;-3.60;99.90;;;;;;5075808;28;20424;-64
2022/12/14 00:34:11;;;;;;;;;;;-3.60;99.90;;;;;;5075754;28;19909;-65
2022/12/14 00:36:37;;;;;;;;;;;-3.60;99.90;;;;;;5075693;28;19938;-65
2022/12/14 00:39:02;;;;;;;;;;;-3.60;99.90;;;;;;5075645;28;20365;-65
2022/12/14 00:41:28;;;;;;;;;;;-3.60;99.90;;;;;;5057498;28;20018;-66
2022/12/14 00:43:53;;;;;;;;;;;-3.70;99.90;;;;;;5075552;28;19908;-65
2022/12/14 00:46:19;;;;;;;;;;;-3.60;99.90;;;;;;5057358;28;20332;-65
2022/12/14 00:48:45;;;;;;;;;;;-3.60;99.90;;;;;;5075311;28;19967;-65
2022/12/14 00:51:13;;;;;;;;;;;-3.60;99.90;;;;;;5075161;28;19912;-65
2022/12/14 00:53:39;;;;;;;;;;;-3.60;99.90;;;;;;5075324;28;19952;-65
2022/12/14 00:56:05;;;;;;;;;;;-3.60;99.90;;;;;;5074976;28;19908;-65
2022/12/14 00:58:31;;;;;;;;;;;-3.70;99.90;;;;;;5074938;28;19915;-65
2022/12/14 01:00:57;;;;;;;;;;;-3.70;99.90;;;;;;5074942;28;19999;-64
2022/12/14 01:03:23;;;;;;;;;;;-3.70;99.90;;;;;;5075134;28;20007;-64
2022/12/14 01:05:48;;;;;;;;;;;-3.70;99.90;;;;;;5074804;28;20381;-65
2022/12/14 01:08:14;;;;;;;;;;;-3.70;99.90;;;;;;5074949;28;19916;-64
2022/12/14 01:10:39;;;;;;;;;;;-3.60;99.90;;;;;;5074965;28;19908;-65
2022/12/14 01:13:05;;;;;;;;;;;-3.70;99.90;;;;;;5073869;28;19908;-65
2022/12/14 01:15:33;;;;;;;;;;;-3.70;99.90;;;;;;5074848;28;20402;-65
2022/12/14 01:17:58;;;;;;;;;;;-3.60;99.90;;;;;;5074595;28;19919;-65
2022/12/14 01:20:23;;;;;;;;;;;-3.70;99.90;;;;;;5056885;28;19917;-64
2022/12/14 01:22:52;;;;;;;;;;;-3.70;99.90;;;;;;5074526;28;19909;-65
2022/12/14 01:25:18;;;;;;;;;;;-3.60;99.90;;;;;;5074689;28;19913;-64
2022/12/14 01:27:43;;;;;;;;;;;-3.60;99.90;;;;;;5074177;28;20263;-65
2022/12/14 01:30:09;;;;;;;;;;;-3.60;99.90;;;;;;5074338;28;19931;-65
2022/12/14 01:32:34;;;;;;;;;;;-3.50;99.90;;;;;;5074543;28;19943;-65
2022/12/14 01:35:00;;;;;;;;;;;-3.50;99.90;;;;;;5074266;28;19912;-66
2022/12/14 01:37:25;;;;;;;;;;;-3.40;99.90;;;;;;5074493;28;20354;-65
2022/12/14 01:39:51;;;;;;;;;;;-3.50;99.90;;;;;;5074407;28;19916;-65
2022/12/14 01:42:16;;;;;;;;;;;-3.50;99.90;;;;;;5074390;28;20362;-64
2022/12/14 01:47:23;;;;;;;;;;;-3.50;99.90;;;;;;5091403;27;20297;-65
2022/12/14 01:49:58;;;;;;;;;;;-3.60;99.90;;;;;;5091396;28;20363;-65
2022/12/14 01:52:41;;;;;;;;;;;-3.60;99.90;;;;;;5091384;28;20324;-65
2022/12/14 01:55:09;;;;;;;;;;;-3.60;99.90;;;;;;5091072;28;20003;-65
2022/12/14 01:57:38;;;;;;;;;;;-3.70;99.90;;;;;;5091272;28;19912;-65
2022/12/14 02:00:05;;;;;;;;;;;-3.80;99.90;;;;;;5091217;28;20362;-65
2022/12/14 02:02:30;;;;;;;;;;;-3.80;99.90;;;;;;5091194;28;20435;-65
2022/12/14 02:04:58;;;;;;;;;;;-3.90;99.90;;;;;;5090870;28;19908;-65
2022/12/14 02:07:25;;;;;;;;;;;-3.90;99.90;;;;;;5091092;28;20370;-65
2022/12/14 02:09:52;;;;;;;;;;;-4.00;99.90;;;;;;5090756;28;19943;-65
2022/12/14 02:12:20;;;;;;;;;;;-4.00;99.90;;;;;;5090738;28;19908;-65
2022/12/14 02:14:46;;;;;;;;;;;-4.00;99.90;;;;;;5090671;28;19966;-65
2022/12/14 02:17:13;;;;;;;;;;;-4.10;99.90;;;;;;5090881;28;19989;-65
2022/12/14 02:19:40;;;;;;;;;;;-4.10;99.90;;;;;;5089411;28;19908;-65
2022/12/14 02:22:15;;;;;;;;;;;-4.10;99.90;;;;;;5090819;28;19916;-65
2022/12/14 02:25:00;;;;;;;;;;;-4.10;99.90;;;;;;5090516;28;20000;-64
2022/12/14 02:27:46;;;;;;;;;;;-4.10;99.90;;;;;;5090564;28;19916;-64
2022/12/14 02:30:17;;;;;;;;;;;-4.20;99.90;;;;;;5090481;28;19991;-64
2022/12/14 02:33:02;;;;;;;;;;;-4.10;99.90;;;;;;5090626;28;19908;-64
2022/12/14 02:35:34;;;;;;;;;;;-4.20;99.90;;;;;;5090478;28;19944;-64
2022/12/14 02:38:05;;;;;;;;;;;-4.20;99.90;;;;;;5090523;28;19909;-64
2022/12/14 02:40:50;;;;;;;;;;;-4.20;99.90;;;;;;5090212;28;19908;-65
2022/12/14 02:46:18;;;;;;;;;;;-4.20;99.90;;;;;;5071088;28;19919;-65
2022/12/14 02:48:47;;;;;;;;;;;-4.10;99.90;;;;;;5070914;28;20374;-64
2022/12/14 02:51:19;;;;;;;;;;;-4.10;99.90;;;;;;5071215;28;20289;-65
2022/12/14 02:53:50;;;;;;;;;;;-4.00;99.90;;;;;;5071140;28;19915;-65
2022/12/14 02:56:21;;;;;;;;;;;-4.00;99.90;;;;;;5070822;28;19909;-65
2022/12/14 02:58:49;;;;;;;;;;;-4.00;99.90;;;;;;5071001;28;20374;-65
2022/12/14 03:01:17;;;;;;;;;;;-4.00;99.90;;;;;;5070972;28;19954;-65
2022/12/14 03:03:43;;;;;;;;;;;-3.90;99.90;;;;;;5070626;28;19909;-65
2022/12/14 03:06:24;;;;;;;;;;;-3.90;99.90;;;;;;5070848;28;20296;-65
2022/12/14 03:08:52;;;;;;;;;;;-3.90;99.90;;;;;;5070831;28;20294;-65
2022/12/14 03:11:20;;;;;;;;;;;-3.90;99.90;;;;;;5070503;28;19909;-65
2022/12/14 03:13:49;;;;;;;;;;;-3.80;99.90;;;;;;5070708;28;20409;-65
2022/12/14 03:16:24;;;;;;;;;;;-3.70;99.90;;;;;;5070654;28;19915;-65
2022/12/14 03:18:53;;;;;;;;;;;-3.60;99.90;;;;;;5070623;28;19913;-65
2022/12/14 03:21:21;;;;;;;;;;;-3.60;99.90;;;;;;5070327;28;19916;-65
2022/12/14 03:23:47;;;;;;;;;;;-3.60;99.90;;;;;;5070432;28;20243;-64
2022/12/14 03:26:21;;;;;;;;;;;-3.60;99.90;;;;;;5070462;28;19939;-64
2022/12/14 03:28:49;;;;;;;;;;;-3.60;99.90;;;;;;5070449;28;19912;-65
2022/12/14 03:31:18;;;;;;;;;;;-3.70;99.90;;;;;;5070395;28;20382;-65
2022/12/14 03:33:45;;;;;;;;;;;-3.60;99.90;;;;;;5070068;28;19915;-65
2022/12/14 03:36:30;;;;;;;;;;;-3.70;99.90;;;;;;5069933;28;19935;-65
2022/12/14 03:38:57;;;;;;;;;;;-3.60;99.90;;;;;;5083052;28;19950;-65
2022/12/14 03:41:42;;;;;;;;;;;-3.60;99.90;;;;;;5069866;28;19908;-65
2022/12/14 03:44:28;;;;;;;;;;;-3.60;99.90;;;;;;5074802;28;20023;-65
2022/12/14 03:46:56;;;;;;;;;;;-3.70;99.90;;;;;;5089899;28;20374;-65
2022/12/14 03:49:31;;;;;;;;;;;-3.60;99.90;;;;;;5089980;28;19914;-65
2022/12/14 03:52:01;;;;;;;;;;;-3.60;99.90;;;;;;5090265;28;20431;-65
2022/12/14 03:57:13;;;;;;;;;;;-3.70;99.90;;;;;;5071077;28;19913;-65
2022/12/14 03:59:48;;;;;;;;;;;-3.70;99.90;;;;;;5071238;28;20324;-65
2022/12/14 04:02:21;;;;;;;;;;;-3.70;99.90;;;;;;5071150;28;19935;-65
2022/12/14 04:04:50;;;;;;;;;;;-3.70;99.90;;;;;;5070877;28;19909;-65
2022/12/14 04:07:35;;;;;;;;;;;-3.80;99.90;;;;;;5071062;28;19944;-65
2022/12/14 04:18:55;;;;;;;;;;;-3.80;99.90;;;;;;5070781;28;19931;-65
2022/12/14 04:18:59;;;;;;;;;;;-3.60;99.90;;;;;;5070457;28;19909;-65
2022/12/14 04:21:23;;;;;;;;;;;-3.70;99.90;;;;;;5070416;28;19909;-64
2022/12/14 04:26:39;;;;;;;;;;;-3.70;99.90;;;;;;5070305;28;20423;-65
2022/12/14 04:31:57;;;;;;;;;;;-3.60;99.90;;;;;;5070139;28;20343;-65
2022/12/14 04:34:24;;;;;;;;;;;-3.70;99.90;;;;;;5070284;28;19909;-65
2022/12/14 04:36:54;;;;;;;;;;;-3.70;99.90;;;;;;5070377;28;20007;-65
2022/12/14 04:39:24;;;;;;;;;;;-3.70;99.90;;;;;;5070404;28;19909;-65
2022/12/14 04:41:53;;;;;;;;;;;-3.70;99.90;;;;;;5070350;28;20382;-65
2022/12/14 04:44:23;;;;;;;;;;;-3.60;99.90;;;;;;5070085;28;19913;-65
2022/12/14 04:46:49;;;;;;;;;;;-3.50;99.90;;;;;;5070282;28;20118;-65
2022/12/14 04:49:18;;;;;;;;;;;-3.50;99.90;;;;;;5070254;28;20381;-65
2022/12/14 04:51:48;;;;;;;;;;;-3.40;99.90;;;;;;5070161;28;20363;-65
2022/12/14 04:54:17;;;;;;;;;;;-3.40;99.90;;;;;;5069848;28;19916;-65
2022/12/14 04:56:54;;;;;;;;;;;-3.40;99.90;;;;;;5086812;28;19931;-65
2022/12/14 04:59:20;;;;;;;;;;;-3.40;99.90;;;;;;5090022;28;20401;-65
2022/12/14 05:01:57;;;;;;;;;;;-3.40;99.90;;;;;;5090267;28;19908;-65
2022/12/14 05:04:32;;;;;;;;;;;-3.40;99.90;;;;;;5090214;28;19908;-65
2022/12/14 05:07:11;;;;;;;;;;;-3.40;99.90;;;;;;5085123;28;19958;-65
2022/12/14 05:09:41;;;;;;;;;;;-3.40;99.90;;;;;;5076613;28;20374;-65
2022/12/14 05:12:11;;;;;;;;;;;-3.40;99.90;;;;;;5076341;28;20397;-65
2022/12/14 05:14:42;;;;;;;;;;;-3.30;99.90;;;;;;5076326;28;19962;-65
2022/12/14 05:17:08;;;;;;;;;;;-3.40;99.90;;;;;;5076479;28;19938;-65
2022/12/14 05:19:34;;;;;;;;;;;-3.40;99.90;;;;;;5076262;28;19909;-65
2022/12/14 05:22:03;;;;;;;;;;;-3.30;99.90;;;;;;5076413;28;19909;-65
2022/12/14 05:24:29;;;;;;;;;;;-3.40;99.90;;;;;;5076176;28;19912;-65
2022/12/14 05:26:54;;;;;;;;;;;-3.40;99.90;;;;;;5076043;28;19908;-65
2022/12/14 05:29:20;;;;;;;;;;;-3.40;99.90;;;;;;5075971;28;20065;-64
2022/12/14 05:31:45;;;;;;;;;;;-3.50;99.90;;;;;;5076223;28;19915;-65
2022/12/14 05:34:10;;;;;;;;;;;-3.40;99.90;;;;;;5076155;28;19947;-65
2022/12/14 05:36:36;;;;;;;;;;;-3.40;99.90;;;;;;5076084;28;19994;-65
2022/12/14 05:39:01;;;;;;;;;;;-3.40;99.90;;;;;;5075833;28;20313;-66
2022/12/14 05:41:27;;;;;;;;;;;-3.40;99.90;;;;;;5076044;28;20007;-64
2022/12/14 05:43:52;;;;;;;;;;;-3.40;99.90;;;;;;5075997;28;19908;-65
2022/12/14 05:46:18;;;;;;;;;;;-3.30;99.90;;;;;;5075648;28;19958;-65
2022/12/14 05:48:43;;;;;;;;;;;-3.30;99.90;;;;;;5075587;28;19909;-65
2022/12/14 05:51:10;;;;;;;;;;;-3.20;99.90;;;;;;5075812;28;19912;-65
2022/12/14 05:53:37;;;;;;;;;;;-3.30;99.90;;;;;;5075707;28;19908;-65
2022/12/14 05:56:02;;;;;;;;;;;-3.20;99.90;;;;;;5075249;28;20015;-66
2022/12/14 05:58:28;;;;;;;;;;;-3.20;99.90;;;;;;5075715;28;19970;-65
2022/12/14 06:00:58;;;;;;;;;;;-3.20;99.90;;;;;;5075126;28;19909;-65
2022/12/14 06:03:24;;;;;;;;;;;-3.20;99.90;;;;;;5075162;28;19908;-65
2022/12/14 06:05:49;;;;;;;;;;;-3.20;99.90;;;;;;5075424;28;20050;-65
2022/12/14 06:08:15;;;;;;;;;;;-3.20;99.90;;;;;;5075254;28;20396;-65
2022/12/14 06:10:40;;;;;;;;;;;-3.20;99.90;;;;;;5075036;28;19931;-65
2022/12/14 06:13:06;;;;;;;;;;;-3.20;99.90;;;;;;5075313;28;19938;-65
2022/12/14 06:15:31;;;;;;;;;;;-3.10;99.90;;;;;;5075105;28;19912;-65
2022/12/14 06:17:57;;;;;;;;;;;-3.20;99.90;;;;;;5075017;28;19908;-65
2022/12/14 06:20:22;;;;;;;;;;;-3.20;99.90;;;;;;5074433;28;19999;-65
2022/12/14 06:22:47;;;;;;;;;;;-3.20;99.90;;;;;;5075164;28;19908;-65
2022/12/14 06:25:13;;;;;;;;;;;-3.30;99.90;;;;;;5075135;28;20329;-65
2022/12/14 06:27:38;;;;;;;;;;;-3.20;99.90;;;;;;5074859;28;20017;-65
2022/12/14 06:30:04;;;;;;;;;;;-3.30;99.90;;;;;;5074789;28;19908;-65
2022/12/14 06:32:30;;;;;;;;;;;-3.30;99.90;;;;;;5075013;28;19915;-65
2022/12/14 06:34:55;;;;;;;;;;;-3.30;99.90;;;;;;5074600;28;19912;-65
2022/12/14 06:37:20;;;;;;;;;;;-3.30;99.90;;;;;;5074637;28;20345;-65
2022/12/14 06:39:46;;;;;;;;;;;-3.30;99.90;;;;;;5074543;28;19909;-65
2022/12/14 06:42:11;;;;;;;;;;;-3.30;99.90;;;;;;5074819;28;19945;-66
2022/12/14 06:44:37;;;;;;;;;;;-3.30;99.90;;;;;;5074612;28;19908;-65
2022/12/14 06:47:02;;;;;;;;;;;-3.30;99.90;;;;;;5074534;28;20377;-65
2022/12/14 06:49:28;;;;;;;;;;;-3.40;99.90;;;;;;5074419;28;19912;-65
2022/12/14 06:51:53;;;;;;;;;;;-3.30;99.90;;;;;;5074621;28;19909;-65
2022/12/14 06:54:19;;;;;;;;;;;-3.40;99.90;;;;;;5074567;28;19916;-65
2022/12/14 06:56:45;;;;;;;;;;;-3.40;99.90;;;;;;5074029;28;19924;-65
2022/12/14 06:59:11;;;;;;;;;;;-3.40;99.90;;;;;;5074239;28;19908;-65
2022/12/14 07:01:38;;;;;;;;;;;-3.40;99.90;;;;;;5074174;28;19999;-65
2022/12/14 07:04:04;;;;;;;;;;;-3.40;99.90;;;;;;5074048;28;19958;-65
2022/12/14 07:06:31;;;;;;;;;;;-3.40;99.90;;;;;;5074361;28;19909;-65
2022/12/14 07:08:57;;;;;;;;;;;-3.40;99.90;;;;;;5074043;28;19951;-65
2022/12/14 07:11:23;;;;;;;;;;;-3.40;99.90;;;;;;5073907;28;19915;-65
2022/12/14 07:13:49;;;;;;;;;;;-3.40;99.90;;;;;;5073975;28;19912;-65
2022/12/14 07:16:23;;;;;;;;;;;-3.40;99.90;;;;;;5056044;28;20336;-65
2022/12/14 07:18:48;;;;;;;;;;;-3.40;99.90;;;;;;5073862;28;19915;-65
2022/12/14 07:21:15;;;;;;;;;;;-3.40;99.90;;;;;;5055958;28;19908;-65
2022/12/14 07:23:41;;;;;;;;;;;-3.30;99.90;;;;;;5073814;28;19947;-65
2022/12/14 07:26:08;;;;;;;;;;;-3.30;99.90;;;;;;5073822;28;19909;-65
2022/12/14 07:28:35;;;;;;;;;;;-3.30;99.90;;;;;;5073332;28;19935;-65
2022/12/14 07:31:02;;;;;;;;;;;-3.30;99.90;;;;;;5072221;28;19919;-65
2022/12/14 07:33:28;;;;;;;;;;;-3.30;99.90;;;;;;5073364;28;20290;-65
2022/12/14 07:36:00;;;;;;;;;;;-3.40;99.90;;;;;;5073795;28;19912;-65
2022/12/14 07:38:25;;;;;;;;;;;-3.30;99.90;;;;;;5055844;28;20350;-65
2022/12/14 07:40:51;;;;;;;;;;;-3.30;99.90;;;;;;5073454;28;19974;-65
2022/12/14 07:43:17;;;;;;;;;;;-3.30;99.90;;;;;;5073728;28;19915;-65
2022/12/14 07:45:43;;;;;;;;;;;-3.30;99.90;;;;;;5074088;28;19916;-65
2022/12/14 07:48:08;;;;;;;;;;;-3.30;99.90;;;;;;5072820;28;19939;-65
2022/12/14 07:50:34;;;;;;;;;;;-3.30;99.90;;;;;;5073676;28;19909;-65
2022/12/14 07:52:59;;;;;;;;;;;-3.30;99.90;;;;;;5073706;28;19915;-65
2022/12/14 07:55:25;;;;;;;;;;;-3.30;99.90;;;;;;5068941;28;20370;-65
2022/12/14 07:57:50;;;;;;;;;;;-3.40;99.90;;;;;;5073361;28;19908;-65
2022/12/14 08:00:16;;;;;;;;;;;-3.30;99.90;;;;;;5073358;28;20003;-65
2022/12/14 08:02:42;;;;;;;;;;;-3.30;99.90;;;;;;5073246;28;19908;-66
2022/12/14 08:05:07;;;;;;;;;;;-3.30;99.90;;;;;;5073498;28;19908;-65
2022/12/14 08:07:32;;;;;;;;;;;-3.30;99.90;;;;;;5073392;28;19983;-65
2022/12/14 08:09:58;;;;;;;;;;;-3.30;99.90;;;;;;5072965;28;19920;-65
2022/12/14 08:12:23;;;;;;;;;;;-3.30;99.90;;;;;;5073232;28;19920;-65
2022/12/14 08:14:49;;;;;;;;;;;-3.30;99.90;;;;;;5073029;28;19913;-65
2022/12/14 08:17:14;;;;;;;;;;;-3.20;99.90;;;;;;5055211;28;20328;-65
2022/12/14 08:19:40;;;;;;;;;;;-3.20;99.90;;;;;;5072604;28;19913;-65
2022/12/14 08:22:05;;;;;;;;;;;-3.10;99.90;;;;;;5073403;28;19943;-65
2022/12/14 08:24:31;;;;;;;;;;;-3.00;99.90;;;;;;5058770;28;19912;-65
2022/12/14 08:26:57;;;;;;;;;;;-3.00;99.90;;;;;;5073090;28;20284;-65
2022/12/14 08:29:22;;;;;;;;;;;-2.90;99.90;;;;;;5073013;28;19958;-65
2022/12/14 08:31:47;;;;;;;;;;;-2.90;99.90;;;;;;5073298;28;19916;-65
2022/12/14 08:34:15;;;;;;;;;;;-2.80;99.90;;;;;;5062459;28;19916;-65
2022/12/14 08:36:41;;;;;;;;;;;-2.80;99.90;;;;;;5073181;28;20274;-65
2022/12/14 08:39:08;;;;;;;;;;;-2.80;99.90;;;;;;5073032;28;19912;-65
2022/12/14 08:41:34;;;;;;;;;;;-2.80;99.90;;;;;;5072784;28;19951;-65
2022/12/14 08:44:00;;;;;;;;;;;-2.70;99.90;;;;;;5076853;28;19909;-65
2022/12/14 08:46:34;;;;;;;;;;;-2.70;99.90;;;;;;5076662;28;20343;-65
2022/12/14 08:48:59;;;;;;;;;;;-2.70;99.90;;;;;;5076634;28;19912;-65
2022/12/14 08:51:26;;;;;;;;;;;-2.60;99.90;;;;;;5076530;28;19912;-66
2022/12/14 08:53:52;;;;;;;;;;;-2.60;99.90;;;;;;5076775;28;19992;-65
2022/12/14 08:56:19;;;;;;;;;;;-2.60;99.90;;;;;;5076419;28;20413;-65
2022/12/14 08:58:45;;;;;;;;;;;-2.60;99.90;;;;;;5075895;28;20003;-65
2022/12/14 09:01:12;;;;;;;;;;;-2.50;99.90;;;;;;5076213;28;20013;-65
2022/12/14 09:03:38;;;;;;;;;;;-2.50;99.90;;;;;;5075551;28;20378;-65
2022/12/14 09:06:04;;;;;;;;;;;-2.50;99.90;;;;;;5075784;28;19912;-65
2022/12/14 09:08:31;;;;;;;;;;;-2.50;99.90;;;;;;5076671;28;19908;-65
2022/12/14 09:10:57;;;;;;;;;;;-2.50;99.90;;;;;;5076193;28;19958;-65
2022/12/14 09:13:22;;;;;;;;;;;-2.40;99.90;;;;;;5075882;28;19938;-65
2022/12/14 09:15:56;;;;;;;;;;;-2.40;99.90;;;;;;5075741;28;20006;-66
2022/12/14 09:18:22;;;;;;;;;;;-2.40;99.90;;;;;;5056458;28;19939;-65
2022/12/14 09:20:47;;;;;;;;;;;-2.30;99.90;;;;;;5075470;28;20366;-65
2022/12/14 09:23:13;;;;;;;;;;;-2.30;99.90;;;;;;5075464;28;19920;-65
2022/12/14 09:25:38;;;;;;;;;;;-2.20;99.90;;;;;;5070961;28;19925;-65
2022/12/14 09:28:04;;;;;;;;;;;-2.20;99.90;;;;;;5074518;28;19939;-65
2022/12/14 09:30:29;;;;;;;;;;;-2.10;99.90;;;;;;5074845;28;19920;-65
2022/12/14 09:32:55;;;;;;;;;;;-2.10;99.90;;;;;;5058582;28;19917;-65
2022/12/14 09:35:21;;;;;;;;;;;-2.10;99.90;;;;;;5074917;28;19983;-65
2022/12/14 09:37:46;;;;;;;;;;;-2.00;99.90;;;;;;5075278;28;19912;-66
2022/12/14 09:40:12;;;;;;;;;;;-1.90;99.90;;;;;;5074899;28;19913;-65
2022/12/14 09:42:47;;;;;;;;;;;-1.80;99.90;;;;;;5074853;28;19917;-65
2022/12/14 09:45:16;;;;;;;;;;;-1.70;99.90;;;;;;5070038;28;19912;-65
2022/12/14 09:48:01;;;;;;;;;;;-1.80;99.90;;;;;;5074974;28;20331;-65
2022/12/14 09:50:27;;;;;;;;;;;-1.80;99.90;;;;;;5057140;28;19912;-65
2022/12/14 09:52:54;;;;;;;;;;;-1.90;99.90;;;;;;5074655;28;20357;-65
2022/12/14 09:55:25;;;;;;;;;;;-1.90;99.90;;;;;;5074464;28;19921;-65
2022/12/14 09:57:55;;;;;;;;;;;-1.90;99.90;;;;;;5075045;28;19913;-65
2022/12/14 10:03:00;;;;;;;;;;;-2.00;99.90;;;;;;5822536;22;20120;-76
2022/12/14 10:05:32;;;;;;;;;;;-2.00;99.90;;;;;;5056454;22;19939;-76
2022/12/14 10:08:06;;;;;;;;;;;-1.90;99.90;;;;;;5035209;28;19949;-76
2022/12/14 10:10:39;;;;;;;;;;;-1.80;99.90;;;;;;5035021;28;20288;-76
2022/12/14 10:13:18;;;;;;;;;;;-1.70;99.90;;;;;;5034530;28;19921;-77
2022/12/14 10:15:52;;;;;;;;;;;-1.60;99.90;;;;;;5034566;28;19921;-76
2022/12/14 10:18:37;;;;;;;;;;;-1.60;99.90;;;;;;5036196;28;19914;-76
2022/12/14 10:21:05;;;;;;;;;;;-1.60;99.90;;;;;;5033934;28;19953;-75
2022/12/14 10:23:31;;;;;;;;;;;-1.60;99.90;;;;;;5034318;28;19913;-76
2022/12/14 10:26:01;;;;;;;;;;;-1.70;99.90;;;;;;5048086;28;19914;-75
2022/12/14 10:28:45;;;;;;;;;;;-1.70;99.90;;;;;;5027665;28;19913;-76
2022/12/14 10:31:13;;;;;;;;;;;-1.80;99.90;;;;;;5016421;28;19914;-77
2022/12/14 10:33:42;;;;;;;;;;;-1.80;99.90;;;;;;5033253;28;19920;-77
2022/12/14 10:36:16;;;;;;;;;;;-1.80;99.90;;;;;;5046630;28;19921;-76
2022/12/14 10:38:57;;;;;;;;;;;-1.80;99.90;;;;;;5030973;28;19925;-76
2022/12/14 10:41:42;;;;;;;;;;;-1.90;99.90;;;;;;5041153;28;20373;-76
2022/12/14 10:44:28;;;;;;;;;;;-1.80;99.90;;;;;;5026208;28;19913;-76
2022/12/14 10:46:57;;;;;;;;;;;-1.80;99.90;;;;;;5034166;28;19913;-77
2022/12/14 10:49:26;;;;;;;;;;;-1.70;99.90;;;;;;5034188;28;20285;-76
2022/12/14 10:52:13;;;;;;;;;;;-1.70;99.90;;;;;;5032903;28;19952;-76
2022/12/14 10:54:44;;;;;;;;;;;-1.70;99.90;;;;;;5033834;28;19936;-75
2022/12/14 10:57:15;;;;;;;;;;;-1.70;99.90;;;;;;5033356;28;20293;-74
2022/12/14 10:59:42;;;;;;;;;;;-1.60;99.90;;;;;;5045670;28;19929;-75
2022/12/14 11:02:14;;;;;;;;;;;-1.60;99.90;;;;;;5033358;28;19920;-75
2022/12/14 11:04:59;;;;;;;;;;;-1.60;99.90;;;;;;5028934;28;20318;-76
2022/12/14 11:07:25;;;;;;;;;;;-1.50;99.90;;;;;;5032386;28;19967;-76
2022/12/14 11:09:51;;;;;;;;;;;-1.50;99.90;;;;;;5033804;28;19913;-75
2022/12/14 11:12:19;;;;;;;;;;;-1.40;99.90;;;;;;5049157;28;19909;-75
2022/12/14 11:14:54;;;;;;;;;;;-1.30;99.90;;;;;;5032269;28;19956;-75
2022/12/14 11:17:40;;;;;;;;;;;-1.40;99.90;;;;;;5049151;28;19925;-76
2022/12/14 11:20:16;;;;;;;;;;;-1.40;99.90;;;;;;5033524;28;20457;-75
2022/12/14 11:22:43;;;;;;;;;;;-1.30;99.90;;;;;;5033915;28;19960;-76
2022/12/14 11:25:25;;;;;;;;;;;-1.30;99.90;;;;;;5033558;28;20317;-76
2022/12/14 11:27:51;;;;;;;;;;;-1.30;99.90;;;;;;5049285;28;19912;-76
2022/12/14 11:30:16;;;;;;;;;;;-1.30;99.90;;;;;;5033092;28;19920;-76
2022/12/14 11:32:45;;;;;;;;;;;-1.30;99.90;;;;;;5033452;28;19928;-76
2022/12/14 11:35:15;;;;;;;;;;;-1.30;99.90;;;;;;5028503;28;19959;-76
2022/12/14 11:37:41;;;;;;;;;;;-1.20;99.90;;;;;;5028410;28;20329;-76
2022/12/14 11:40:17;;;;;;;;;;;-1.20;99.90;;;;;;5032641;28;19914;-76
2022/12/14 11:42:46;;;;;;;;;;;-1.20;99.90;;;;;;5047810;28;19917;-76
2022/12/14 11:45:29;;;;;;;;;;;-1.20;99.90;;;;;;5047960;28;19967;-76
2022/12/14 11:48:14;;;;;;;;;;;-1.20;99.90;;;;;;5043089;28;19921;-76
2022/12/14 11:50:40;;;;;;;;;;;-1.20;99.90;;;;;;5046971;28;19913;-76
2022/12/14 11:53:08;;;;;;;;;;;-1.10;99.90;;;;;;5030822;28;19936;-75
2022/12/14 11:55:37;;;;;;;;;;;-1.10;99.90;;;;;;5031356;28;20037;-76
2022/12/14 11:58:02;;;;;;;;;;;-1.10;99.90;;;;;;5028967;28;19913;-75
2022/12/14 12:00:31;;;;;;;;;;;-1.00;99.90;;;;;;5023431;28;19921;-75
2022/12/14 12:03:14;;;;;;;;;;;-0.90;99.90;;;;;;5026273;28;19918;-77
2022/12/14 12:05:41;;;;;;;;;;;-0.80;99.90;;;;;;5028581;28;20011;-76
2022/12/14 12:08:17;;;;;;;;;;;-0.80;99.90;;;;;;5028711;28;20016;-74
2022/12/14 12:10:44;;;;;;;;;;;-0.70;99.90;;;;;;5042184;28;19936;-74
2022/12/14 12:13:30;;;;;;;;;;;-0.60;99.90;;;;;;5042814;28;20352;-76
2022/12/14 12:15:57;;;;;;;;;;;-0.50;99.90;;;;;;5025761;28;20024;-76
2022/12/14 12:18:27;;;;;;;;;;;-0.80;99.90;;;;;;5034400;28;19910;-75
2022/12/14 12:21:00;;;;;;;;;;;-0.90;99.90;;;;;;5035107;28;19913;-76
2022/12/14 12:23:45;;;;;;;;;;;-0.90;99.90;;;;;;5033058;28;20071;-76
2022/12/14 12:26:15;;;;;;;;;;;-0.80;99.90;;;;;;5035086;28;20512;-76
2022/12/14 12:28:42;;;;;;;;;;;-0.90;99.90;;;;;;5031552;28;19920;-76
2022/12/14 12:31:10;;;;;;;;;;;-1.00;99.90;;;;;;5036098;28;19920;-76
2022/12/14 12:33:56;;;;;;;;;;;-1.10;99.90;;;;;;5034183;28;19916;-75
2022/12/14 12:36:22;;;;;;;;;;;-1.10;99.90;;;;;;5034821;28;19945;-74
2022/12/14 12:39:05;;;;;;;;;;;-0.90;99.90;;;;;;5034619;28;19959;-75
2022/12/14 12:41:35;;;;;;;;;;;-0.80;99.90;;;;;;5035603;28;19920;-75
2022/12/14 12:44:10;;;;;;;;;;;-0.70;99.90;;;;;;5035698;28;19909;-76
2022/12/14 12:46:44;;;;;;;;;;;-0.50;99.90;;;;;;5051931;28;19913;-76
2022/12/14 12:49:11;;;;;;;;;;;-0.50;99.90;;;;;;5035778;28;19917;-75
2022/12/14 12:51:47;;;;;;;;;;;-0.50;99.90;;;;;;5032282;28;20914;-75
2022/12/14 12:54:31;;;;;;;;;;;-0.40;99.90;;;;;;5017193;28;20396;-74
2022/12/14 12:56:58;;;;;;;;;;;-0.30;99.90;;;;;;5033589;28;19924;-75
2022/12/14 12:59:32;;;;;;;;;;;-0.60;99.90;;;;;;5034016;28;20013;-75
2022/12/14 13:02:01;;;;;;;;;;;-0.60;99.90;;;;;;5033081;28;20087;-75
2022/12/14 13:04:32;;;;;;;;;;;-0.50;99.90;;;;;;5043008;28;19924;-75
2022/12/14 13:07:02;;;;;;;;;;;-0.40;99.90;;;;;;5027724;28;19917;-75
2022/12/14 13:09:34;;;;;;;;;;;-0.40;99.90;;;;;;5047809;28;19913;-76
2022/12/14 13:12:00;;;;;;;;;;;-0.50;99.90;;;;;;5030047;28;20378;-75
2022/12/14 13:14:29;;;;;;;;;;;-0.50;99.90;;;;;;5048639;28;20341;-75
2022/12/14 13:16:56;;;;;;;;;;;-0.50;99.90;;;;;;5051137;28;19925;-75
2022/12/14 13:19:41;;;;;;;;;;;-0.40;99.90;;;;;;5035237;28;19913;-74
2022/12/14 13:22:09;;;;;;;;;;;-0.50;99.90;;;;;;5031900;28;19913;-74
2022/12/14 13:24:35;;;;;;;;;;;-0.70;99.90;;;;;;5027420;28;19921;-75
2022/12/14 13:27:20;;;;;;;;;;;-0.80;99.90;;;;;;5030341;28;19920;-74
2022/12/14 13:29:54;;;;;;;;;;;-0.80;99.90;;;;;;5031839;28;19913;-75
2022/12/14 13:32:40;;;;;;;;;;;-0.70;99.90;;;;;;5033077;28;19936;-75
2022/12/14 13:35:25;;;;;;;;;;;-0.70;99.90;;;;;;5034871;28;19963;-75
2022/12/14 13:38:01;;;;;;;;;;;-0.70;99.90;;;;;;5031146;28;19920;-74
2022/12/14 13:40:37;;;;;;;;;;;-0.70;99.90;;;;;;5035800;28;19916;-76
2022/12/14 13:46:10;;;;;;;;;;;-0.50;99.90;;;;;;5093329;22;19929;-68
2022/12/14 13:48:38;;;;;;;;;;;-0.60;99.90;;;;;;5090694;28;19948;-67
2022/12/14 13:51:06;;;;;;;;;;;-0.60;99.90;;;;;;5089947;28;19909;-70
2022/12/14 13:53:39;;;;;;;;;;;-0.60;99.90;;;;;;5086656;28;19924;-69
2022/12/14 13:56:05;;;;;;;;;;;-0.50;99.90;;;;;;5089413;28;19931;-70
2022/12/14 13:58:39;;;;;;;;;;;-0.60;99.90;;;;;;5089274;28;19908;-70
2022/12/14 14:01:10;;;;;;;;;;;-0.60;99.90;;;;;;5089980;28;19912;-71
2022/12/14 14:06:18;;;;;;;;;;;-0.60;99.90;;;;;;5090403;27;19985;-69
2022/12/14 14:08:45;;;;;;;;;;;-0.60;99.90;;;;;;5073385;28;20385;-70
2022/12/14 14:14:16;;;;;;;;;;;-0.70;99.90;;;;;;5091125;27;19912;-70
2022/12/14 14:16:43;;;;;;;;;;;-0.80;99.90;;;;;;5099221;28;19920;-70
2022/12/14 14:22:06;;;;;;;;;;;-0.90;99.90;;;;;;5069419;28;20278;-70
2022/12/14 14:24:50;;;;;;;;;;;-0.90;99.90;;;;;;5082396;28;20364;-70
2022/12/14 14:27:18;;;;;;;;;;;-1.00;99.90;;;;;;5072124;28;20424;-71
2022/12/14 14:29:46;;;;;;;;;;;-1.10;99.90;;;;;;5056406;28;20258;-70
2022/12/14 14:32:31;;;;;;;;;;;-1.20;99.90;;;;;;5063364;28;19921;-69
2022/12/14 14:34:58;;;;;;;;;;;-1.20;99.90;;;;;;5061242;28;19913;-69
2022/12/14 14:37:26;;;;;;;;;;;-1.20;99.90;;;;;;5064293;28;19939;-70
2022/12/14 14:40:02;;;;;;;;;;;-1.30;99.90;;;;;;5068165;28;19916;-70
2022/12/14 14:42:29;;;;;;;;;;;-1.40;99.90;;;;;;5069302;28;19958;-71
2022/12/14 14:44:56;;;;;;;;;;;-1.50;99.90;;;;;;5069092;28;19973;-70
2022/12/14 14:47:25;;;;;;;;;;;-1.60;99.90;;;;;;5069383;28;19928;-70
2022/12/14 14:49:53;;;;;;;;;;;-1.60;99.90;;;;;;5073291;28;19948;-70
2022/12/14 14:52:39;;;;;;;;;;;-1.70;99.90;;;;;;5068968;28;19934;-71
2022/12/14 14:55:24;;;;;;;;;;;-1.80;99.90;;;;;;5069122;28;20358;-70
2022/12/14 14:58:11;;;;;;;;;;;-1.90;99.90;;;;;;5070052;28;20374;-71
2022/12/14 15:00:39;;;;;;;;;;;-2.00;99.90;;;;;;5067515;28;20014;-70
2022/12/14 15:03:06;;;;;;;;;;;-2.10;99.90;;;;;;5070015;28;19976;-70